createdAt,value
2022-11-25T00:00:48.753Z,99.99
2022-11-25T00:01:48.764Z,99.99
2022-11-25T00:02:48.851Z,99.99
2022-11-25T00:03:48.706Z,99.99
2022-11-25T00:04:48.706Z,99.99
2022-11-25T00:05:48.674Z,99.99
2022-11-25T00:06:48.685Z,99.99
2022-11-25T00:07:48.728Z,99.99
2022-11-25T00:08:48.687Z,99.99
2022-11-25T00:09:48.635Z,99.99
2022-11-25T00:10:48.647Z,99.99
2022-11-25T00:11:48.611Z,99.99
2022-11-25T00:12:48.628Z,99.99
2022-11-25T00:13:48.610Z,99.99
2022-11-25T00:14:48.617Z,99.99
2022-11-25T00:15:48.573Z,99.99
2022-11-25T00:16:49.018Z,99.99
2022-11-25T00:17:48.561Z,99.99
2022-11-25T00:18:48.581Z,99.99
2022-11-25T00:19:48.545Z,99.99
2022-11-25T00:20:48.545Z,98.65
2022-11-25T00:21:48.505Z,97.57
2022-11-25T00:22:48.527Z,97.11
2022-11-25T00:23:48.487Z,96.59
2022-11-25T00:24:48.498Z,95.87
2022-11-25T00:25:48.473Z,94.54
2022-11-25T00:26:48.482Z,94.03
2022-11-25T00:27:48.449Z,92.85
2022-11-25T00:28:48.463Z,92.95
2022-11-25T00:29:48.420Z,92.44
2022-11-25T00:30:48.460Z,91.98
2022-11-25T00:31:48.452Z,91.88
2022-11-25T00:32:48.416Z,91.73
2022-11-25T00:33:48.391Z,91.11
2022-11-25T00:34:48.393Z,91.01
2022-11-25T00:35:48.369Z,90.70
2022-11-25T00:36:48.385Z,90.70
2022-11-25T00:37:48.336Z,90.70
2022-11-25T00:38:48.353Z,90.70
2022-11-25T00:39:48.319Z,90.59
2022-11-25T00:40:48.336Z,90.70
2022-11-25T00:41:48.325Z,90.70
2022-11-25T00:42:48.307Z,90.49
2022-11-25T00:43:48.275Z,90.08
2022-11-25T00:44:48.290Z,90.08
2022-11-25T00:45:48.294Z,89.98
2022-11-25T00:46:48.266Z,89.98
2022-11-25T00:47:48.246Z,89.87
2022-11-25T00:48:48.257Z,89.98
2022-11-25T00:49:48.210Z,90.08
2022-11-25T00:50:48.221Z,90.19
2022-11-25T00:51:48.203Z,90.19
2022-11-25T00:52:48.217Z,89.73
2022-11-25T00:53:48.181Z,89.83
2022-11-25T00:54:48.185Z,89.73
2022-11-25T00:55:48.152Z,89.83
2022-11-25T00:56:48.160Z,89.83
2022-11-25T00:57:48.130Z,89.94
2022-11-25T00:58:48.155Z,89.94
2022-11-25T00:59:48.110Z,90.08
2022-11-25T01:00:48.168Z,90.19
2022-11-25T01:01:48.168Z,90.28
2022-11-25T01:02:48.121Z,90.28
2022-11-25T01:03:48.093Z,89.98
2022-11-25T01:04:48.075Z,90.08
2022-11-25T01:05:48.042Z,90.08
2022-11-25T01:06:48.057Z,90.08
2022-11-25T01:07:48.122Z,90.08
2022-11-25T01:08:48.035Z,90.49
2022-11-25T01:09:48.014Z,90.59
2022-11-25T01:10:48.012Z,91.16
2022-11-25T01:11:47.983Z,91.46
2022-11-25T01:12:48.007Z,91.42
2022-11-25T01:13:47.960Z,91.67
2022-11-25T01:14:47.988Z,91.42
2022-11-25T01:15:47.938Z,91.32
2022-11-25T01:16:48.040Z,91.32
2022-11-25T01:17:47.915Z,90.70
2022-11-25T01:18:47.928Z,90.55
2022-11-25T01:19:47.894Z,90.14
2022-11-25T01:20:47.958Z,90.14
2022-11-25T01:21:47.876Z,89.42
2022-11-25T01:22:47.883Z,89.07
2022-11-25T01:23:47.850Z,89.28
2022-11-25T01:24:47.871Z,89.48
2022-11-25T01:25:47.996Z,89.73
2022-11-25T01:26:47.844Z,89.94
2022-11-25T01:27:47.815Z,90.35
2022-11-25T01:28:47.837Z,90.66
2022-11-25T01:29:47.790Z,90.66
2022-11-25T01:30:47.802Z,91.17
2022-11-25T01:31:47.834Z,91.28
2022-11-25T01:32:47.781Z,91.48
2022-11-25T01:33:47.751Z,91.28
2022-11-25T01:34:47.761Z,91.63
2022-11-25T01:35:47.727Z,91.73
2022-11-25T01:36:47.760Z,90.66
2022-11-25T01:37:47.707Z,90.76
2022-11-25T01:38:47.721Z,90.55
2022-11-25T01:39:47.692Z,90.35
2022-11-25T01:40:47.701Z,90.66
2022-11-25T01:41:47.672Z,90.86
2022-11-25T01:42:47.689Z,91.17
2022-11-25T01:43:47.646Z,90.97
2022-11-25T01:44:47.652Z,90.86
2022-11-25T01:45:47.671Z,90.41
2022-11-25T01:46:47.637Z,90.61
2022-11-25T01:47:47.631Z,91.17
2022-11-25T01:48:47.612Z,91.38
2022-11-25T01:49:47.580Z,91.17
2022-11-25T01:50:47.595Z,90.61
2022-11-25T01:51:47.559Z,90.61
2022-11-25T01:52:47.569Z,90.72
2022-11-25T01:53:47.547Z,90.41
2022-11-25T01:54:47.555Z,89.89
2022-11-25T01:55:47.521Z,90.41
2022-11-25T01:56:47.529Z,90.10
2022-11-25T01:57:47.500Z,89.75
2022-11-25T01:58:47.536Z,89.65
2022-11-25T01:59:47.473Z,89.75
2022-11-25T02:00:47.548Z,89.75
2022-11-25T02:01:47.634Z,89.34
2022-11-25T02:02:47.537Z,89.23
2022-11-25T02:03:47.446Z,89.54
2022-11-25T02:04:47.459Z,89.44
2022-11-25T02:05:47.410Z,89.44
2022-11-25T02:06:47.429Z,88.47
2022-11-25T02:07:47.519Z,88.47
2022-11-25T02:08:47.402Z,88.99
2022-11-25T02:09:47.384Z,88.68
2022-11-25T02:10:47.385Z,88.78
2022-11-25T02:11:47.369Z,88.47
2022-11-25T02:12:47.351Z,88.17
2022-11-25T02:13:47.370Z,88.47
2022-11-25T02:14:47.314Z,88.02
2022-11-25T02:15:47.340Z,88.26
2022-11-25T02:16:47.414Z,88.68
2022-11-25T02:17:47.308Z,88.78
2022-11-25T02:18:47.284Z,89.09
2022-11-25T02:19:47.286Z,89.54
2022-11-25T02:20:47.271Z,89.85
2022-11-25T02:21:47.271Z,89.44
2022-11-25T02:22:47.233Z,89.61
2022-11-25T02:23:47.244Z,89.65
2022-11-25T02:24:47.218Z,89.75
2022-11-25T02:25:47.222Z,89.75
2022-11-25T02:26:47.202Z,89.81
2022-11-25T02:27:47.200Z,89.50
2022-11-25T02:28:48.182Z,89.71
2022-11-25T02:29:47.184Z,89.50
2022-11-25T02:30:47.159Z,89.09
2022-11-25T02:31:47.262Z,89.09
2022-11-25T02:32:47.128Z,89.09
2022-11-25T02:33:47.154Z,88.99
2022-11-25T02:34:47.104Z,88.89
2022-11-25T02:35:47.123Z,89.09
2022-11-25T02:36:47.117Z,88.99
2022-11-25T02:37:47.178Z,88.33
2022-11-25T02:38:47.064Z,88.53
2022-11-25T02:39:47.080Z,88.23
2022-11-25T02:40:47.047Z,88.33
2022-11-25T02:41:47.057Z,88.23
2022-11-25T02:42:47.035Z,88.33
2022-11-25T02:43:47.034Z,88.12
2022-11-25T02:44:47.001Z,87.92
2022-11-25T02:45:47.048Z,88.12
2022-11-25T02:46:46.980Z,87.98
2022-11-25T02:47:46.992Z,88.08
2022-11-25T02:49:07.965Z,88.33
2022-11-25T02:49:46.976Z,88.33
2022-11-25T02:50:46.937Z,88.29
2022-11-25T02:51:46.952Z,88.53
2022-11-25T02:52:46.916Z,88.29
2022-11-25T02:53:46.944Z,88.39
2022-11-25T02:54:46.902Z,87.98
2022-11-25T02:55:46.913Z,88.08
2022-11-25T02:56:46.882Z,87.98
2022-11-25T02:57:46.896Z,87.67
2022-11-25T02:58:46.851Z,87.67
2022-11-25T02:59:46.900Z,88.08
2022-11-25T03:00:46.890Z,88.39
2022-11-25T03:01:46.883Z,88.49
2022-11-25T03:02:46.870Z,88.90
2022-11-25T03:03:46.825Z,88.39
2022-11-25T03:04:46.816Z,88.59
2022-11-25T03:05:46.813Z,88.39
2022-11-25T03:06:46.767Z,88.39
2022-11-25T03:07:46.843Z,88.39
2022-11-25T03:08:46.746Z,88.70
2022-11-25T03:09:46.768Z,89.05
2022-11-25T03:10:46.746Z,89.15
2022-11-25T03:11:46.741Z,89.46
2022-11-25T03:12:46.712Z,89.46
2022-11-25T03:13:46.725Z,89.67
2022-11-25T03:14:46.687Z,89.77
2022-11-25T03:15:46.720Z,89.67
2022-11-25T03:16:46.756Z,89.36
2022-11-25T03:17:46.689Z,89.46
2022-11-25T03:18:46.640Z,89.11
2022-11-25T03:19:46.655Z,89.25
2022-11-25T03:20:46.620Z,89.25
2022-11-25T03:21:46.642Z,89.36
2022-11-25T03:22:46.604Z,89.36
2022-11-25T03:23:46.620Z,89.56
2022-11-25T03:24:46.593Z,89.67
2022-11-25T03:25:46.598Z,89.67
2022-11-25T03:26:46.588Z,89.77
2022-11-25T03:27:46.573Z,89.31
2022-11-25T03:28:46.547Z,89.31
2022-11-25T03:29:46.555Z,88.90
2022-11-25T03:30:46.515Z,88.49
2022-11-25T03:31:46.578Z,88.59
2022-11-25T03:32:46.508Z,88.80
2022-11-25T03:33:46.508Z,88.90
2022-11-25T03:34:46.472Z,89.01
2022-11-25T03:35:46.489Z,89.11
2022-11-25T03:36:46.535Z,89.22
2022-11-25T03:37:46.535Z,89.22
2022-11-25T03:38:46.431Z,89.31
2022-11-25T03:39:46.445Z,89.31
2022-11-25T03:40:46.408Z,89.01
2022-11-25T03:41:46.427Z,88.90
2022-11-25T03:42:46.390Z,88.80
2022-11-25T03:43:46.415Z,88.59
2022-11-25T03:44:46.381Z,88.59
2022-11-25T03:45:46.444Z,88.80
2022-11-25T03:46:46.345Z,88.90
2022-11-25T03:47:46.372Z,88.70
2022-11-25T03:48:46.349Z,88.45
2022-11-25T03:49:46.338Z,88.56
2022-11-25T03:50:46.305Z,88.56
2022-11-25T03:51:46.315Z,88.45
2022-11-25T03:52:46.283Z,88.80
2022-11-25T03:53:46.296Z,88.86
2022-11-25T03:54:46.274Z,88.80
2022-11-25T03:55:46.275Z,88.90
2022-11-25T03:56:46.260Z,88.90
2022-11-25T03:57:46.254Z,89.01
2022-11-25T03:58:46.228Z,89.42
2022-11-25T03:59:46.295Z,89.22
2022-11-25T04:00:46.202Z,89.01
2022-11-25T04:01:46.311Z,89.22
2022-11-25T04:02:46.243Z,89.31
2022-11-25T04:03:46.190Z,89.11
2022-11-25T04:04:46.162Z,89.07
2022-11-25T04:05:46.184Z,88.86
2022-11-25T04:06:46.135Z,88.76
2022-11-25T04:07:46.266Z,88.56
2022-11-25T04:08:46.115Z,88.76
2022-11-25T04:09:46.125Z,88.56
2022-11-25T04:10:46.109Z,88.45
2022-11-25T04:11:46.109Z,88.24
2022-11-25T04:12:46.071Z,88.45
2022-11-25T04:13:46.083Z,88.14
2022-11-25T04:14:46.074Z,88.04
2022-11-25T04:15:46.044Z,88.04
2022-11-25T04:16:46.119Z,87.94
2022-11-25T04:17:46.046Z,88.04
2022-11-25T04:18:46.031Z,88.45
2022-11-25T04:19:46.006Z,88.96
2022-11-25T04:20:46.009Z,88.56
2022-11-25T04:21:52.000Z,88.56
2022-11-25T04:22:45.999Z,88.45
2022-11-25T04:23:45.970Z,88.04
2022-11-25T04:24:45.969Z,88.24
2022-11-25T04:25:45.935Z,88.24
2022-11-25T04:26:45.956Z,88.35
2022-11-25T04:27:45.927Z,88.56
2022-11-25T04:28:45.929Z,88.04
2022-11-25T04:29:45.910Z,88.00
2022-11-25T04:30:45.958Z,87.90
2022-11-25T04:31:45.931Z,87.69
2022-11-25T04:32:45.900Z,87.38
2022-11-25T04:33:51.067Z,87.07
2022-11-25T04:34:45.881Z,86.87
2022-11-25T04:35:45.830Z,86.77
2022-11-25T04:36:45.854Z,86.77
2022-11-25T04:37:45.837Z,86.87
2022-11-25T04:38:45.841Z,87.49
2022-11-25T04:39:45.790Z,87.28
2022-11-25T04:40:45.803Z,87.49
2022-11-25T04:41:45.764Z,87.18
2022-11-25T04:42:45.780Z,87.59
2022-11-25T04:43:45.759Z,87.07
2022-11-25T04:44:56.079Z,87.49
2022-11-25T04:46:12.421Z,87.49
2022-11-25T04:46:45.781Z,87.49
2022-11-25T04:47:45.704Z,87.69
2022-11-25T04:48:45.715Z,88.04
2022-11-25T04:49:45.692Z,88.24
2022-11-25T04:50:45.694Z,88.35
2022-11-25T04:51:45.660Z,88.56
2022-11-25T04:52:45.681Z,88.56
2022-11-25T04:53:45.641Z,88.24
2022-11-25T04:54:45.912Z,87.94
2022-11-25T04:55:45.618Z,87.73
2022-11-25T04:56:45.642Z,87.94
2022-11-25T04:57:45.741Z,87.84
2022-11-25T04:58:45.612Z,88.14
2022-11-25T04:59:45.579Z,87.94
2022-11-25T05:00:46.086Z,87.84
2022-11-25T05:01:45.655Z,87.94
2022-11-25T05:02:45.639Z,87.84
2022-11-25T05:03:50.671Z,87.94
2022-11-25T05:04:45.555Z,87.73
2022-11-25T05:05:45.551Z,87.73
2022-11-25T05:06:45.548Z,87.84
2022-11-25T05:07:45.569Z,87.42
2022-11-25T05:08:45.543Z,87.73
2022-11-25T05:09:45.481Z,87.38
2022-11-25T05:10:45.485Z,87.73
2022-11-25T05:11:45.466Z,87.73
2022-11-25T05:12:45.467Z,87.42
2022-11-25T05:13:45.431Z,87.73
2022-11-25T05:14:45.441Z,88.14
2022-11-25T05:15:45.407Z,89.07
2022-11-25T05:16:45.537Z,89.89
2022-11-25T05:17:45.390Z,90.81
2022-11-25T05:18:45.409Z,92.20
2022-11-25T05:19:45.366Z,91.44
2022-11-25T05:20:45.378Z,92.92
2022-11-25T05:21:45.345Z,92.92
2022-11-25T05:22:45.367Z,93.33
2022-11-25T05:23:45.324Z,94.98
2022-11-25T05:24:45.337Z,94.05
2022-11-25T05:25:45.306Z,94.15
2022-11-25T05:26:45.328Z,94.15
2022-11-25T05:27:45.296Z,94.56
2022-11-25T05:28:45.296Z,95.23
2022-11-25T05:29:45.267Z,96.15
2022-11-25T05:30:45.379Z,95.43
2022-11-25T05:31:45.241Z,96.15
2022-11-25T05:32:45.253Z,96.92
2022-11-25T05:33:45.229Z,97.02
2022-11-25T05:34:45.233Z,97.33
2022-11-25T05:35:45.196Z,97.23
2022-11-25T05:36:45.214Z,98.05
2022-11-25T05:37:45.175Z,97.85
2022-11-25T05:38:45.212Z,97.95
2022-11-25T05:39:45.154Z,97.43
2022-11-25T05:40:45.197Z,97.74
2022-11-25T05:41:45.136Z,97.85
2022-11-25T05:42:45.145Z,97.02
2022-11-25T05:43:45.159Z,96.20
2022-11-25T05:44:45.150Z,96.20
2022-11-25T05:45:45.127Z,96.41
2022-11-25T05:46:45.100Z,95.37
2022-11-25T05:47:45.069Z,96.20
2022-11-25T05:48:45.085Z,95.68
2022-11-25T05:49:45.076Z,95.37
2022-11-25T05:50:45.059Z,96.20
2022-11-25T05:51:45.034Z,96.61
2022-11-25T05:52:45.048Z,96.50
2022-11-25T05:53:45.005Z,96.61
2022-11-25T05:54:45.021Z,95.99
2022-11-25T05:55:44.993Z,96.71
2022-11-25T05:56:44.994Z,96.92
2022-11-25T05:57:44.961Z,96.61
2022-11-25T05:58:44.996Z,96.61
2022-11-25T05:59:44.973Z,96.92
2022-11-25T06:00:44.971Z,96.30
2022-11-25T06:01:44.924Z,96.50
2022-11-25T06:02:45.045Z,95.78
2022-11-25T06:03:44.960Z,96.50
2022-11-25T06:04:44.926Z,96.09
2022-11-25T06:05:44.890Z,95.78
2022-11-25T06:06:44.908Z,96.30
2022-11-25T06:07:44.895Z,96.41
2022-11-25T06:08:44.870Z,97.02
2022-11-25T06:09:44.842Z,96.20
2022-11-25T06:10:44.866Z,96.50
2022-11-25T06:11:44.836Z,96.81
2022-11-25T06:12:44.829Z,96.50
2022-11-25T06:13:44.801Z,97.33
2022-11-25T06:14:44.808Z,97.33
2022-11-25T06:15:44.828Z,97.02
2022-11-25T06:16:44.797Z,97.64
2022-11-25T06:17:44.765Z,97.53
2022-11-25T06:18:44.762Z,97.43
2022-11-25T06:19:44.735Z,97.85
2022-11-25T06:20:44.760Z,97.95
2022-11-25T06:21:44.707Z,98.15
2022-11-25T06:22:44.745Z,97.95
2022-11-25T06:23:44.699Z,98.15
2022-11-25T06:24:47.433Z,97.95
2022-11-25T06:25:44.683Z,97.95
2022-11-25T06:26:44.689Z,98.25
2022-11-25T06:28:11.459Z,98.25
2022-11-25T06:28:44.643Z,98.36
2022-11-25T06:29:44.658Z,97.53
2022-11-25T06:30:44.644Z,97.13
2022-11-25T06:31:44.683Z,97.23
2022-11-25T06:32:44.630Z,97.33
2022-11-25T06:33:44.616Z,97.13
2022-11-25T06:34:44.574Z,96.71
2022-11-25T06:35:44.585Z,96.41
2022-11-25T06:36:44.565Z,97.13
2022-11-25T06:37:44.567Z,96.92
2022-11-25T06:38:44.544Z,97.23
2022-11-25T06:39:44.559Z,97.33
2022-11-25T06:40:44.515Z,97.02
2022-11-25T06:41:44.527Z,97.43
2022-11-25T06:42:44.489Z,97.74
2022-11-25T06:43:44.546Z,97.02
2022-11-25T06:44:44.472Z,96.61
2022-11-25T06:45:44.488Z,96.41
2022-11-25T06:46:44.452Z,97.02
2022-11-25T06:47:44.470Z,96.41
2022-11-25T06:48:44.435Z,96.41
2022-11-25T06:49:44.466Z,95.89
2022-11-25T06:50:44.409Z,95.89
2022-11-25T06:51:44.444Z,95.99
2022-11-25T06:52:44.395Z,96.09
2022-11-25T06:53:44.413Z,95.78
2022-11-25T06:54:44.394Z,94.51
2022-11-25T06:55:44.388Z,94.81
2022-11-25T06:56:44.337Z,94.60
2022-11-25T06:57:44.357Z,94.30
2022-11-25T06:58:44.318Z,94.20
2022-11-25T06:59:44.331Z,93.79
2022-11-25T07:00:44.316Z,94.20
2022-11-25T07:01:44.390Z,94.20
2022-11-25T07:02:48.508Z,94.60
2022-11-25T07:03:44.288Z,94.09
2022-11-25T07:04:44.260Z,94.40
2022-11-25T07:05:44.276Z,94.40
2022-11-25T07:06:44.267Z,94.40
2022-11-25T07:07:44.285Z,94.30
2022-11-25T07:08:44.217Z,94.30
2022-11-25T07:09:44.229Z,93.88
2022-11-25T07:10:44.216Z,93.27
2022-11-25T07:11:44.205Z,93.58
2022-11-25T07:12:44.186Z,93.58
2022-11-25T07:13:44.182Z,93.88
2022-11-25T07:14:44.158Z,92.92
2022-11-25T07:15:44.253Z,92.82
2022-11-25T07:16:44.233Z,93.74
2022-11-25T07:17:44.166Z,93.99
2022-11-25T07:18:44.122Z,93.43
2022-11-25T07:19:44.124Z,93.68
2022-11-25T07:20:44.088Z,94.09
2022-11-25T07:21:44.105Z,94.40
2022-11-25T07:22:44.066Z,95.02
2022-11-25T07:23:44.079Z,95.33
2022-11-25T07:24:44.086Z,95.33
2022-11-25T07:25:44.061Z,95.74
2022-11-25T07:26:44.026Z,95.53
2022-11-25T07:27:44.039Z,95.53
2022-11-25T07:28:44.025Z,95.95
2022-11-25T07:30:03.190Z,96.56
2022-11-25T07:31:44.004Z,97.13
2022-11-25T07:32:43.960Z,97.74
2022-11-25T07:33:44.003Z,97.64
2022-11-25T07:34:43.945Z,98.36
2022-11-25T07:35:43.952Z,98.77
2022-11-25T07:36:43.941Z,98.88
2022-11-25T07:37:43.932Z,99.74
2022-11-25T07:38:46.694Z,99.99
2022-11-25T07:39:43.910Z,99.99
2022-11-25T07:40:43.890Z,99.99
2022-11-25T07:41:43.890Z,99.99
2022-11-25T07:42:43.879Z,99.99
2022-11-25T07:43:43.869Z,99.99
2022-11-25T07:44:43.839Z,99.99
2022-11-25T07:45:43.846Z,99.99
2022-11-25T07:46:43.864Z,99.99
2022-11-25T07:47:43.823Z,99.99
2022-11-25T07:48:43.830Z,99.99
2022-11-25T07:49:43.807Z,99.99
2022-11-25T07:50:43.814Z,99.99
2022-11-25T07:51:43.781Z,99.99
2022-11-25T07:52:43.754Z,99.99
2022-11-25T07:53:43.763Z,99.99
2022-11-25T07:54:43.847Z,99.99
2022-11-25T07:55:43.748Z,99.99
2022-11-25T07:56:43.725Z,99.99
2022-11-25T07:57:43.717Z,99.99
2022-11-25T07:58:46.025Z,99.99
2022-11-25T07:59:43.710Z,99.99
2022-11-25T08:00:43.699Z,99.99
2022-11-25T08:01:43.790Z,99.99
2022-11-25T08:02:43.754Z,99.99
2022-11-25T08:03:43.665Z,99.99
2022-11-25T08:04:43.636Z,99.99
2022-11-25T08:05:43.638Z,99.99
2022-11-25T08:06:43.632Z,99.99
2022-11-25T08:07:43.656Z,99.99
2022-11-25T08:08:44.203Z,99.99
2022-11-25T08:09:43.600Z,99.99
2022-11-25T08:10:43.601Z,99.99
2022-11-25T08:11:43.575Z,99.99
2022-11-25T08:12:43.566Z,99.99
2022-11-25T08:13:43.557Z,99.99
2022-11-25T08:14:43.522Z,99.99
2022-11-25T08:15:43.600Z,99.99
2022-11-25T08:16:43.497Z,99.99
2022-11-25T08:17:43.511Z,99.99
2022-11-25T08:18:43.508Z,99.99
2022-11-25T08:19:43.492Z,99.99
2022-11-25T08:20:43.456Z,99.99
2022-11-25T08:21:43.483Z,99.99
2022-11-25T08:22:43.432Z,99.99
2022-11-25T08:23:43.451Z,99.99
2022-11-25T08:24:43.439Z,99.99
2022-11-25T08:25:48.977Z,99.99
2022-11-25T08:26:43.400Z,99.99
2022-11-25T08:27:43.404Z,99.99
2022-11-25T08:28:43.369Z,99.99
2022-11-25T08:29:43.401Z,99.99
2022-11-25T08:30:43.372Z,99.99
2022-11-25T08:31:43.492Z,99.99
2022-11-25T08:32:43.334Z,99.99
2022-11-25T08:33:43.343Z,99.99
2022-11-25T08:34:43.310Z,99.99
2022-11-25T08:35:43.333Z,99.99
2022-11-25T08:36:47.999Z,99.99
2022-11-25T08:37:43.305Z,99.99
2022-11-25T08:38:43.275Z,99.99
2022-11-25T08:39:52.560Z,99.99
2022-11-25T08:40:43.249Z,99.99
2022-11-25T08:41:43.261Z,99.99
2022-11-25T08:42:43.240Z,99.99
2022-11-25T08:43:43.235Z,99.99
2022-11-25T08:44:43.234Z,99.99
2022-11-25T08:45:43.212Z,99.99
2022-11-25T08:46:43.208Z,99.99
2022-11-25T08:47:43.193Z,99.99
2022-11-25T08:48:43.177Z,99.99
2022-11-25T08:49:43.684Z,99.99
2022-11-25T08:50:43.139Z,99.99
2022-11-25T08:51:43.153Z,99.99
2022-11-25T08:52:43.118Z,99.99
2022-11-25T08:53:43.129Z,99.99
2022-11-25T08:54:43.146Z,99.99
2022-11-25T08:55:43.108Z,99.99
2022-11-25T08:56:43.073Z,99.99
2022-11-25T08:57:43.104Z,99.99
2022-11-25T08:58:43.056Z,99.99
2022-11-25T08:59:43.065Z,99.99
2022-11-25T09:00:43.053Z,99.99
2022-11-25T09:01:43.094Z,99.99
2022-11-25T09:02:43.080Z,99.99
2022-11-25T09:03:43.028Z,99.99
2022-11-25T09:04:43.011Z,99.99
2022-11-25T09:05:43.006Z,99.99
2022-11-25T09:06:43.002Z,99.99
2022-11-25T09:07:43.069Z,99.99
2022-11-25T09:08:42.952Z,99.65
2022-11-25T09:09:42.971Z,99.99
2022-11-25T09:10:42.926Z,99.99
2022-11-25T09:11:43.012Z,99.99
2022-11-25T09:12:42.919Z,99.99
2022-11-25T09:13:42.984Z,99.99
2022-11-25T09:14:42.887Z,99.99
2022-11-25T09:15:42.998Z,99.99
2022-11-25T09:16:42.895Z,99.40
2022-11-25T09:17:42.882Z,99.25
2022-11-25T09:18:42.857Z,98.74
2022-11-25T09:19:42.864Z,98.84
2022-11-25T09:20:42.821Z,99.46
2022-11-25T09:21:42.836Z,99.56
2022-11-25T09:22:42.817Z,99.72
2022-11-25T09:23:42.812Z,99.72
2022-11-25T09:24:42.806Z,99.99
2022-11-25T09:25:42.807Z,98.69
2022-11-25T09:26:42.759Z,98.49
2022-11-25T09:27:42.775Z,98.79
2022-11-25T09:28:42.750Z,99.72
2022-11-25T09:29:42.755Z,98.28
2022-11-25T09:30:42.743Z,99.31
2022-11-25T09:31:42.832Z,99.00
2022-11-25T09:32:42.696Z,97.87
2022-11-25T09:33:42.715Z,98.28
2022-11-25T09:34:42.674Z,99.10
2022-11-25T09:35:42.693Z,99.00
2022-11-25T09:36:42.831Z,98.49
2022-11-25T09:37:42.666Z,97.45
2022-11-25T09:38:43.446Z,98.85
2022-11-25T09:39:42.643Z,97.82
2022-11-25T09:40:42.615Z,97.10
2022-11-25T09:41:42.625Z,96.48
2022-11-25T09:42:42.612Z,96.69
2022-11-25T09:43:42.600Z,97.00
2022-11-25T09:44:42.569Z,96.39
2022-11-25T09:45:42.583Z,97.31
2022-11-25T09:46:42.597Z,97.72
2022-11-25T09:47:47.179Z,97.20
2022-11-25T09:48:42.554Z,95.01
2022-11-25T09:49:42.541Z,95.10
2022-11-25T09:50:42.507Z,95.10
2022-11-25T09:51:42.517Z,94.39
2022-11-25T09:52:42.501Z,94.39
2022-11-25T09:53:42.496Z,94.90
2022-11-25T09:54:42.474Z,93.87
2022-11-25T09:55:42.475Z,95.27
2022-11-25T09:56:42.443Z,93.87
2022-11-25T09:57:42.449Z,95.72
2022-11-25T09:58:42.417Z,94.59
2022-11-25T09:59:42.439Z,95.42
2022-11-25T10:00:42.423Z,94.29
2022-11-25T10:01:42.420Z,95.21
2022-11-25T10:02:42.534Z,95.62
2022-11-25T10:03:42.524Z,95.42
2022-11-25T10:04:42.363Z,94.90
2022-11-25T10:05:42.368Z,95.42
2022-11-25T10:06:42.437Z,95.42
2022-11-25T10:07:42.346Z,95.21
2022-11-25T10:08:42.312Z,94.96
2022-11-25T10:09:42.325Z,94.65
2022-11-25T10:10:42.294Z,94.04
2022-11-25T10:11:42.314Z,94.55
2022-11-25T10:12:42.281Z,95.37
2022-11-25T10:13:42.288Z,95.27
2022-11-25T10:14:42.254Z,95.57
2022-11-25T10:15:42.310Z,93.07
2022-11-25T10:16:45.940Z,93.79
2022-11-25T10:17:42.264Z,92.97
2022-11-25T10:18:42.205Z,92.25
2022-11-25T10:19:42.222Z,91.59
2022-11-25T10:20:42.188Z,91.80
2022-11-25T10:21:42.201Z,92.00
2022-11-25T10:22:42.176Z,91.69
2022-11-25T10:23:42.189Z,91.38
2022-11-25T10:24:42.454Z,90.01
2022-11-25T10:25:42.154Z,91.14
2022-11-25T10:26:42.122Z,90.11
2022-11-25T10:27:42.144Z,90.42
2022-11-25T10:28:42.215Z,90.52
2022-11-25T10:29:42.123Z,91.08
2022-11-25T10:30:42.103Z,90.22
2022-11-25T10:31:42.125Z,91.59
2022-11-25T10:32:42.056Z,90.56
2022-11-25T10:33:42.081Z,92.00
2022-11-25T10:34:42.048Z,92.00
2022-11-25T10:35:42.063Z,90.87
2022-11-25T10:36:42.035Z,90.46
2022-11-25T10:37:42.048Z,90.11
2022-11-25T10:38:41.994Z,89.81
2022-11-25T10:39:42.023Z,90.32
2022-11-25T10:40:41.975Z,89.36
2022-11-25T10:41:41.987Z,88.47
2022-11-25T10:42:41.951Z,89.25
2022-11-25T10:43:41.960Z,90.89
2022-11-25T10:44:41.962Z,88.53
2022-11-25T10:45:41.933Z,88.12
2022-11-25T10:47:11.659Z,88.74
2022-11-25T10:47:41.984Z,89.15
2022-11-25T10:48:44.329Z,88.23
2022-11-25T10:49:41.882Z,87.98
2022-11-25T10:50:41.905Z,88.18
2022-11-25T10:51:41.858Z,88.29
2022-11-25T10:52:41.873Z,87.59
2022-11-25T10:53:41.837Z,85.67
2022-11-25T10:54:42.309Z,81.24
2022-11-25T10:55:41.813Z,81.54
2022-11-25T10:56:41.845Z,82.22
2022-11-25T10:57:41.795Z,79.77
2022-11-25T10:58:41.818Z,80.38
2022-11-25T10:59:41.774Z,80.44
2022-11-25T11:00:41.788Z,79.52
2022-11-25T11:01:41.841Z,79.73
2022-11-25T11:02:41.860Z,79.08
2022-11-25T11:03:41.729Z,78.57
2022-11-25T11:04:41.749Z,80.71
2022-11-25T11:05:46.409Z,79.96
2022-11-25T11:06:41.730Z,79.55
2022-11-25T11:07:41.776Z,80.30
2022-11-25T11:08:41.703Z,78.12
2022-11-25T11:09:41.672Z,77.55
2022-11-25T11:10:41.676Z,79.66
2022-11-25T11:11:41.644Z,78.47
2022-11-25T11:12:41.682Z,79.96
2022-11-25T11:13:41.626Z,78.94
2022-11-25T11:14:41.640Z,79.66
2022-11-25T11:15:41.771Z,79.00
2022-11-25T11:16:41.663Z,78.39
2022-11-25T11:17:41.580Z,77.14
2022-11-25T11:18:41.630Z,77.89
2022-11-25T11:19:41.557Z,80.48
2022-11-25T11:20:41.565Z,80.24
2022-11-25T11:21:41.538Z,80.30
2022-11-25T11:22:41.548Z,81.32
2022-11-25T11:23:41.547Z,81.51
2022-11-25T11:24:41.523Z,82.83
2022-11-25T11:25:41.496Z,80.79
2022-11-25T11:26:41.513Z,80.38
2022-11-25T11:27:41.473Z,81.51
2022-11-25T11:28:41.484Z,81.24
2022-11-25T11:29:41.465Z,81.81
2022-11-25T11:30:41.462Z,82.01
2022-11-25T11:31:41.480Z,81.34
2022-11-25T11:32:41.441Z,83.24
2022-11-25T11:33:41.418Z,80.38
2022-11-25T11:34:41.431Z,81.24
2022-11-25T11:35:42.099Z,81.51
2022-11-25T11:36:41.398Z,82.43
2022-11-25T11:37:41.366Z,82.48
2022-11-25T11:38:41.380Z,82.98
2022-11-25T11:39:41.343Z,82.57
2022-11-25T11:40:41.376Z,83.39
2022-11-25T11:41:41.319Z,83.50
2022-11-25T11:42:41.350Z,84.22
2022-11-25T11:43:41.318Z,83.29
2022-11-25T11:44:41.314Z,83.09
2022-11-25T11:45:41.302Z,84.22
2022-11-25T11:46:41.341Z,82.89
2022-11-25T11:47:41.257Z,81.93
2022-11-25T11:48:41.270Z,82.43
2022-11-25T11:49:41.235Z,82.03
2022-11-25T11:50:41.246Z,82.29
2022-11-25T11:51:41.227Z,80.90
2022-11-25T11:52:41.231Z,82.13
2022-11-25T11:53:41.197Z,80.66
2022-11-25T11:54:41.204Z,80.25
2022-11-25T11:55:41.177Z,80.05
2022-11-25T11:56:41.210Z,79.94
2022-11-25T11:57:41.149Z,79.23
2022-11-25T11:58:41.170Z,79.74
2022-11-25T11:59:41.130Z,78.78
2022-11-25T12:00:41.141Z,79.09
2022-11-25T12:01:41.143Z,80.32
2022-11-25T12:02:41.188Z,78.99
2022-11-25T12:03:41.147Z,79.36
2022-11-25T12:04:41.096Z,76.26
2022-11-25T12:05:41.067Z,76.29
2022-11-25T12:06:41.073Z,76.60
2022-11-25T12:07:41.125Z,76.09
2022-11-25T12:08:41.058Z,76.70
2022-11-25T12:09:41.024Z,77.42
2022-11-25T12:10:41.039Z,77.04
2022-11-25T12:11:41.021Z,78.17
2022-11-25T12:12:41.015Z,77.90
2022-11-25T12:13:40.995Z,79.02
2022-11-25T12:14:40.993Z,79.23
2022-11-25T12:15:40.960Z,79.88
2022-11-25T12:16:41.012Z,79.78
2022-11-25T12:17:40.939Z,79.88
2022-11-25T12:18:40.967Z,80.80
2022-11-25T12:19:40.924Z,80.19
2022-11-25T12:20:40.929Z,80.08
2022-11-25T12:21:42.214Z,80.39
2022-11-25T12:22:40.908Z,78.96
2022-11-25T12:23:40.875Z,79.47
2022-11-25T12:24:40.903Z,80.39
2022-11-25T12:25:40.853Z,80.08
2022-11-25T12:26:40.879Z,81.72
2022-11-25T12:27:40.836Z,80.60
2022-11-25T12:28:40.852Z,78.58
2022-11-25T12:29:40.827Z,79.09
2022-11-25T12:30:40.823Z,79.50
2022-11-25T12:31:40.880Z,80.56
2022-11-25T12:32:40.799Z,79.43
2022-11-25T12:33:40.770Z,79.74
2022-11-25T12:34:40.782Z,79.57
2022-11-25T12:35:40.782Z,80.90
2022-11-25T12:36:40.762Z,80.35
2022-11-25T12:37:40.729Z,77.97
2022-11-25T12:38:40.746Z,78.17
2022-11-25T12:39:40.707Z,80.46
2022-11-25T12:40:40.743Z,79.64
2022-11-25T12:41:40.709Z,80.08
2022-11-25T12:42:40.697Z,81.41
2022-11-25T12:43:40.663Z,79.57
2022-11-25T12:44:40.676Z,80.08
2022-11-25T12:45:40.703Z,80.60
2022-11-25T12:46:40.652Z,80.35
2022-11-25T12:47:40.632Z,80.66
2022-11-25T12:48:40.635Z,80.08
2022-11-25T12:49:40.610Z,81.10
2022-11-25T12:50:40.632Z,80.97
2022-11-25T12:51:40.576Z,80.25
2022-11-25T12:52:40.602Z,79.53
2022-11-25T12:53:40.560Z,79.09